CheckWX is a tool to help pilots better visualize weather data.  It is not intended as a substitute for an official pre-flight weather briefing.

02:05:59 UTC

EHBK TAF
Maastricht Aachen Airport
Maastricht, The Netherlands
TAF EHBK 202318Z 2100/2206 18003KT CAVOK BECMG 2201/2204 4000 BR PROB40 2202/2206 0300 FG VV001

Mar-21@
00:00 UTC

Mar-21 @ 00:00 UTC

Mar-22@
01:00 UTC

Mar-22 @ 01:00 UTC

TAF EHBK 202318Z 2100/2206 18003KT CAVOK
Wind
  • 180° at 3 KTS
Conditions
No significant weather
Cloud Levels
  • No significant clouds

Mar-22@
01:00 UTC

Mar-22 @ 01:00 UTC

Mar-22@
06:00 UTC

Mar-22 @ 06:00 UTC

BECMG 2201/2204 4000 BR

Becoming

Becoming Conditions expected by Fri, Mar 22, 2019 @ 04:00 UTC

Wind
  • 180° at 3 KTS
Conditions
Mist
Cloud Levels
  • No significant clouds

Mar-22@
02:00 UTC

Mar-22 @ 02:00 UTC

Mar-22@
06:00 UTC

Mar-22 @ 06:00 UTC

PROB40 2202/2206 0300 FG VV001

Probable - 40% Likelihood

Probable - 40% Likelihood during this time.

Conditions
Fog
Cloud Levels
  • Vertical visibility at 100' AGL